createdAt,value
2022-12-06T00:01:26.062Z,8.73
2022-12-06T00:03:55.207Z,9.20
2022-12-06T00:06:23.806Z,6.90
2022-12-06T00:08:51.351Z,8.93
2022-12-06T00:11:20.774Z,8.10
2022-12-06T00:13:48.545Z,9.60
2022-12-06T00:16:16.958Z,10.27
2022-12-06T00:18:45.596Z,7.87
2022-12-06T00:21:23.456Z,9.47
2022-12-06T00:23:56.414Z,8.90
2022-12-06T00:26:23.662Z,7.63
2022-12-06T00:28:53.744Z,7.00
2022-12-06T00:31:22.363Z,8.77
2022-12-06T00:33:49.089Z,7.40
2022-12-06T00:36:24.046Z,8.30
2022-12-06T00:38:51.447Z,7.90
2022-12-06T00:41:21.118Z,8.43
2022-12-06T00:43:48.787Z,8.50
2022-12-06T00:46:18.268Z,9.20
2022-12-06T00:48:46.353Z,9.10
2022-12-06T00:51:13.397Z,9.30
2022-12-06T00:53:40.582Z,9.03
2022-12-06T00:56:07.729Z,8.83
2022-12-06T00:58:34.488Z,8.00
2022-12-06T01:01:15.562Z,9.00
2022-12-06T01:03:43.359Z,9.50
2022-12-06T01:06:13.450Z,8.10
2022-12-06T01:08:40.944Z,9.17
2022-12-06T01:11:08.711Z,9.40
2022-12-06T01:13:35.941Z,8.93
2022-12-06T01:16:11.570Z,8.70
2022-12-06T01:18:39.192Z,9.17
2022-12-06T01:21:08.435Z,8.90
2022-12-06T01:23:35.082Z,9.90
2022-12-06T01:26:02.100Z,9.37
2022-12-06T01:28:28.908Z,8.10
2022-12-06T01:30:55.682Z,8.07
2022-12-06T01:33:22.531Z,8.10
2022-12-06T01:35:49.212Z,9.70
2022-12-06T01:38:15.966Z,8.63
2022-12-06T01:40:45.724Z,7.37
2022-12-06T01:43:32.391Z,7.70
2022-12-06T01:46:23.956Z,7.27
2022-12-06T01:48:57.311Z,7.33
2022-12-06T01:51:24.467Z,6.30
2022-12-06T01:53:53.439Z,8.60
2022-12-06T01:56:21.098Z,7.70
2022-12-06T01:58:51.079Z,7.20
2022-12-06T02:01:18.108Z,7.27
2022-12-06T02:03:46.025Z,7.07
2022-12-06T02:06:12.905Z,7.20
2022-12-06T02:08:39.648Z,7.30
2022-12-06T02:11:06.407Z,6.47
2022-12-06T02:13:35.562Z,6.70
2022-12-06T02:16:08.340Z,6.63
2022-12-06T02:18:34.901Z,6.73
2022-12-06T02:21:25.871Z,8.13
2022-12-06T02:24:15.839Z,7.43
2022-12-06T02:27:05.550Z,6.40
2022-12-06T02:29:59.626Z,6.87
2022-12-06T02:32:34.549Z,8.07
2022-12-06T02:35:12.987Z,7.03
2022-12-06T02:38:02.854Z,8.17
2022-12-06T02:40:36.669Z,7.20
2022-12-06T02:43:08.365Z,7.97
2022-12-06T02:45:41.772Z,9.50
2022-12-06T02:48:10.530Z,9.17
2022-12-06T02:50:44.917Z,10.07
2022-12-06T02:53:17.037Z,8.70
2022-12-06T02:55:45.203Z,8.50
2022-12-06T02:58:11.801Z,8.67
2022-12-06T03:00:58.203Z,8.03
2022-12-06T03:03:27.864Z,10.23
2022-12-06T03:06:03.664Z,9.50
2022-12-06T03:08:39.661Z,9.50
2022-12-06T03:11:06.763Z,8.63
2022-12-06T03:13:59.860Z,8.70
2022-12-06T03:16:30.161Z,8.60
2022-12-06T03:19:06.176Z,9.30
2022-12-06T03:21:38.729Z,9.27
2022-12-06T03:24:10.074Z,9.13
2022-12-06T03:26:38.520Z,10.00
2022-12-06T03:29:09.400Z,9.13
2022-12-06T03:31:40.498Z,9.57
2022-12-06T03:34:15.172Z,8.53
2022-12-06T03:36:44.896Z,10.17
2022-12-06T03:39:16.092Z,10.97
2022-12-06T03:41:51.933Z,9.83
2022-12-06T03:44:19.283Z,9.93
2022-12-06T03:46:50.390Z,9.10
2022-12-06T03:49:36.350Z,10.87
2022-12-06T03:52:03.899Z,10.80
2022-12-06T03:54:30.530Z,11.87
2022-12-06T03:56:57.210Z,12.50
2022-12-06T03:59:23.833Z,10.43
2022-12-06T04:01:50.402Z,13.00
2022-12-06T04:04:17.068Z,9.80
2022-12-06T04:06:43.672Z,9.90
2022-12-06T04:09:28.585Z,10.30
2022-12-06T04:11:55.156Z,9.70
2022-12-06T04:14:21.760Z,9.17
2022-12-06T04:17:07.010Z,10.30
2022-12-06T04:19:33.635Z,10.23
2022-12-06T04:22:18.951Z,11.33
2022-12-06T04:24:45.603Z,10.77
2022-12-06T04:27:30.863Z,10.20
2022-12-06T04:30:17.238Z,18.17
2022-12-06T04:33:02.595Z,15.87
2022-12-06T04:35:47.686Z,111.83
2022-12-06T04:38:32.874Z,26.27
2022-12-06T04:40:59.438Z,12.07
2022-12-06T04:43:44.246Z,10.83
2022-12-06T04:46:12.809Z,9.63
2022-12-06T04:48:40.865Z,9.80
2022-12-06T04:51:07.964Z,9.10
2022-12-06T04:53:34.607Z,10.33
2022-12-06T04:56:01.705Z,10.23
2022-12-06T04:58:28.327Z,11.13
2022-12-06T05:00:55.447Z,9.73
2022-12-06T05:03:22.248Z,10.30
2022-12-06T05:05:49.692Z,10.37
2022-12-06T05:08:16.285Z,11.30
2022-12-06T05:10:47.914Z,11.03
2022-12-06T05:13:15.760Z,10.83
2022-12-06T05:15:54.600Z,9.50
2022-12-06T05:18:21.704Z,11.17
2022-12-06T05:20:48.300Z,11.50
2022-12-06T05:23:15.054Z,10.40
2022-12-06T05:25:41.654Z,12.00
2022-12-06T05:28:09.105Z,9.57
2022-12-06T05:30:36.224Z,12.33
2022-12-06T05:33:02.902Z,14.70
2022-12-06T05:35:29.512Z,13.53
2022-12-06T05:37:56.083Z,9.60
2022-12-06T05:40:23.127Z,10.90
2022-12-06T05:42:49.800Z,10.67
2022-12-06T05:45:16.402Z,11.37
2022-12-06T05:47:43.025Z,12.23
2022-12-06T05:50:10.240Z,12.53
2022-12-06T05:52:36.841Z,11.90
2022-12-06T05:55:03.710Z,12.10
2022-12-06T05:57:30.332Z,11.67
2022-12-06T05:59:57.198Z,20.00
2022-12-06T06:02:23.953Z,10.70
2022-12-06T06:04:50.665Z,27.23
2022-12-06T06:07:17.256Z,29.70
2022-12-06T06:09:43.852Z,22.57
2022-12-06T06:12:12.710Z,13.40
2022-12-06T06:14:39.787Z,13.10
2022-12-06T06:17:06.454Z,11.53
2022-12-06T06:19:33.128Z,14.23
2022-12-06T06:21:59.715Z,18.47
2022-12-06T06:24:26.333Z,13.07
2022-12-06T06:26:52.954Z,15.93
2022-12-06T06:29:19.609Z,15.73
2022-12-06T06:31:46.503Z,20.73
2022-12-06T06:34:13.178Z,14.97
2022-12-06T06:36:44.073Z,11.27
2022-12-06T06:39:12.433Z,17.17
2022-12-06T06:41:39.061Z,14.33
2022-12-06T06:44:05.705Z,11.40
2022-12-06T06:46:34.955Z,16.53
2022-12-06T06:49:02.145Z,14.00
2022-12-06T06:51:31.379Z,39.43
2022-12-06T06:53:58.727Z,62.73
2022-12-06T06:56:26.086Z,16.00
2022-12-06T06:58:53.213Z,12.50
2022-12-06T07:01:23.169Z,13.27
2022-12-06T07:03:51.834Z,14.60
2022-12-06T07:06:18.685Z,11.43
2022-12-06T07:08:46.602Z,13.17
2022-12-06T07:11:14.990Z,10.60
2022-12-06T07:13:45.747Z,14.10
2022-12-06T07:16:16.735Z,10.17
2022-12-06T07:18:46.485Z,10.27
2022-12-06T07:21:15.625Z,10.93
2022-12-06T07:23:42.430Z,11.77
2022-12-06T07:26:14.387Z,11.23
2022-12-06T07:28:43.327Z,10.90
2022-12-06T07:31:22.192Z,10.50
2022-12-06T07:33:52.330Z,10.03
2022-12-06T07:36:19.007Z,11.30
2022-12-06T07:38:51.409Z,11.33
2022-12-06T07:41:38.017Z,13.60
2022-12-06T07:44:31.686Z,13.50
2022-12-06T07:46:58.571Z,13.40
2022-12-06T07:49:25.346Z,13.60
2022-12-06T07:51:54.127Z,14.63
2022-12-06T07:54:21.320Z,12.70
2022-12-06T07:56:48.108Z,12.53
2022-12-06T07:59:14.753Z,13.13
2022-12-06T08:01:41.567Z,14.57
2022-12-06T08:04:08.432Z,11.53
2022-12-06T08:06:35.757Z,11.53
2022-12-06T08:09:02.791Z,12.20
2022-12-06T08:11:29.588Z,14.13
2022-12-06T08:13:56.175Z,12.47
2022-12-06T08:16:23.044Z,14.00
2022-12-06T08:18:49.841Z,14.70
2022-12-06T08:21:16.650Z,14.57
2022-12-06T08:23:43.237Z,12.73
2022-12-06T08:26:13.906Z,12.40
2022-12-06T08:28:41.432Z,12.47
2022-12-06T08:31:14.458Z,14.97
2022-12-06T08:33:41.739Z,13.63
2022-12-06T08:36:14.544Z,13.20
2022-12-06T08:38:41.533Z,12.87
2022-12-06T08:41:27.758Z,13.33
2022-12-06T08:43:56.888Z,13.83
2022-12-06T08:46:23.993Z,13.30
2022-12-06T08:48:51.289Z,14.17
2022-12-06T08:51:17.897Z,13.77
2022-12-06T08:53:44.588Z,13.50
2022-12-06T08:56:11.487Z,13.90
2022-12-06T08:58:38.188Z,13.60
2022-12-06T09:01:16.708Z,15.10
2022-12-06T09:03:43.692Z,13.30
2022-12-06T09:06:11.096Z,13.20
2022-12-06T09:08:38.117Z,14.90
2022-12-06T09:11:06.506Z,12.83
2022-12-06T09:13:34.549Z,13.53
2022-12-06T09:16:06.013Z,14.57
2022-12-06T09:18:33.406Z,15.03
2022-12-06T09:21:00.089Z,13.27
2022-12-06T09:23:27.448Z,15.00
2022-12-06T09:25:54.139Z,14.03
2022-12-06T09:28:20.751Z,12.80
2022-12-06T09:30:47.444Z,12.80
2022-12-06T09:33:14.103Z,13.17
2022-12-06T09:35:40.720Z,13.47
2022-12-06T09:38:07.730Z,13.23
2022-12-06T09:40:43.484Z,12.60
2022-12-06T09:43:31.471Z,12.50
2022-12-06T09:46:39.794Z,12.80
2022-12-06T09:49:13.141Z,11.63
2022-12-06T09:52:33.931Z,11.50
2022-12-06T09:55:18.488Z,10.83
2022-12-06T09:58:19.232Z,13.03
2022-12-06T10:00:53.711Z,16.00
2022-12-06T10:03:53.727Z,12.30
2022-12-06T10:06:23.199Z,12.70
2022-12-06T10:08:49.904Z,10.50
2022-12-06T10:11:28.719Z,15.60
2022-12-06T10:14:43.010Z,14.53
2022-12-06T10:17:26.603Z,16.23
2022-12-06T10:20:02.413Z,13.20
2022-12-06T10:23:05.490Z,11.97
2022-12-06T10:25:35.641Z,11.17
2022-12-06T10:28:12.841Z,9.23
2022-12-06T10:30:53.379Z,38.80
2022-12-06T10:33:42.376Z,37.00
2022-12-06T10:36:13.048Z,110.57
2022-12-06T10:38:48.765Z,78.23
2022-12-06T10:41:22.385Z,63.93
2022-12-06T10:43:54.991Z,25.67
2022-12-06T10:47:04.940Z,15.10
2022-12-06T10:49:50.692Z,11.40
2022-12-06T10:52:25.947Z,11.93
2022-12-06T10:55:19.175Z,12.10
2022-12-06T10:57:55.074Z,8.80
2022-12-06T11:00:27.236Z,10.47
2022-12-06T11:03:06.026Z,8.63
2022-12-06T11:05:37.992Z,11.43
2022-12-06T11:08:13.706Z,24.07
2022-12-06T11:10:44.157Z,17.17
2022-12-06T11:13:30.906Z,45.00
2022-12-06T11:16:22.169Z,38.33
2022-12-06T11:18:49.489Z,46.27
2022-12-06T11:21:31.224Z,8.37
2022-12-06T11:24:19.830Z,11.80
2022-12-06T11:26:54.094Z,7.70
2022-12-06T11:29:20.848Z,7.20
2022-12-06T11:31:55.741Z,5.40
2022-12-06T11:34:31.752Z,7.40
2022-12-06T11:37:00.526Z,7.83
2022-12-06T11:39:29.000Z,7.20
2022-12-06T11:41:59.678Z,7.27
2022-12-06T11:44:42.485Z,8.03
2022-12-06T11:47:19.244Z,8.53
2022-12-06T11:49:47.339Z,8.07
2022-12-06T11:52:22.133Z,5.50
2022-12-06T11:54:55.150Z,5.30
2022-12-06T11:58:06.428Z,5.60
2022-12-06T12:00:33.084Z,4.43
2022-12-06T12:02:59.747Z,4.93
2022-12-06T12:05:36.147Z,4.90
2022-12-06T12:08:20.206Z,5.33
2022-12-06T12:10:59.206Z,4.37
2022-12-06T12:13:44.178Z,4.30
2022-12-06T12:16:21.072Z,4.33
2022-12-06T12:19:02.897Z,4.30
2022-12-06T12:21:37.653Z,6.47
2022-12-06T12:24:06.252Z,5.90
2022-12-06T12:26:39.472Z,6.10
2022-12-06T12:29:09.003Z,5.13
2022-12-06T12:31:47.336Z,4.93
2022-12-06T12:34:28.545Z,4.07
2022-12-06T12:36:58.898Z,5.67
2022-12-06T12:39:37.265Z,5.00
2022-12-06T12:42:05.158Z,4.73
2022-12-06T12:44:38.741Z,8.23
2022-12-06T12:47:18.832Z,6.50
2022-12-06T12:49:59.401Z,4.77
2022-12-06T12:52:38.063Z,6.40
2022-12-06T12:55:27.366Z,4.77
2022-12-06T12:57:59.296Z,7.77
2022-12-06T13:00:34.807Z,3.70
2022-12-06T13:03:28.550Z,4.20
2022-12-06T13:05:57.580Z,3.00
2022-12-06T13:08:30.499Z,3.40
2022-12-06T13:10:59.876Z,3.27
2022-12-06T13:13:37.007Z,2.83
2022-12-06T13:16:10.497Z,2.80
2022-12-06T13:18:51.079Z,3.50
2022-12-06T13:21:25.713Z,2.50
2022-12-06T13:23:55.120Z,3.40
2022-12-06T13:26:39.532Z,3.30
2022-12-06T13:29:40.784Z,1.93
2022-12-06T13:32:15.431Z,2.70
2022-12-06T13:34:52.151Z,2.93
2022-12-06T13:37:52.808Z,2.70
2022-12-06T13:40:43.534Z,3.10
2022-12-06T13:43:25.293Z,3.10
2022-12-06T13:46:13.147Z,2.37
2022-12-06T13:48:55.167Z,3.07
2022-12-06T13:51:30.916Z,2.50
2022-12-06T13:54:03.597Z,2.30
2022-12-06T13:56:34.207Z,2.30
2022-12-06T13:59:24.863Z,2.60
2022-12-06T14:01:58.681Z,2.60
2022-12-06T14:06:54.648Z,2.97
2022-12-06T14:09:23.755Z,2.50
2022-12-06T14:11:51.470Z,2.53
2022-12-06T14:14:20.986Z,2.60
2022-12-06T14:17:00.498Z,2.50
2022-12-06T14:19:48.520Z,2.70
2022-12-06T14:22:31.674Z,2.10
2022-12-06T14:25:01.582Z,2.47
2022-12-06T14:27:34.249Z,2.40
2022-12-06T14:30:17.978Z,2.23
2022-12-06T14:32:51.587Z,2.07
2022-12-06T14:35:24.346Z,1.83
2022-12-06T14:37:53.510Z,2.07
2022-12-06T14:40:45.742Z,2.40
2022-12-06T14:43:17.354Z,1.93
2022-12-06T14:45:45.145Z,2.10
2022-12-06T14:48:12.893Z,2.27
2022-12-06T14:50:52.626Z,2.13
2022-12-06T14:53:37.372Z,2.97
2022-12-06T14:56:26.373Z,2.40
2022-12-06T14:58:53.573Z,3.10
2022-12-06T15:01:23.020Z,2.03
2022-12-06T15:04:05.513Z,2.70
2022-12-06T15:06:36.965Z,2.10
2022-12-06T15:09:15.195Z,2.53
2022-12-06T15:12:04.018Z,2.50
2022-12-06T15:14:40.402Z,2.40
2022-12-06T15:17:10.122Z,2.00
2022-12-06T15:19:47.064Z,2.23
2022-12-06T15:22:24.891Z,3.00
2022-12-06T15:24:55.346Z,3.03
2022-12-06T15:27:23.363Z,2.80
2022-12-06T15:29:50.104Z,4.00
2022-12-06T15:32:19.498Z,2.77
2022-12-06T15:34:46.526Z,2.50
2022-12-06T15:37:37.991Z,3.17
2022-12-06T15:40:02.184Z,2.67
2022-12-06T15:42:29.357Z,2.20
2022-12-06T15:44:55.967Z,2.10
2022-12-06T15:47:22.606Z,2.27
2022-12-06T15:49:51.861Z,2.27
2022-12-06T15:52:23.038Z,2.73
2022-12-06T15:54:49.993Z,2.30
2022-12-06T15:57:16.553Z,2.40
2022-12-06T15:59:43.116Z,2.17
2022-12-06T16:02:15.991Z,2.60
2022-12-06T16:04:43.940Z,2.47
2022-12-06T16:07:11.978Z,2.13
2022-12-06T16:09:38.655Z,3.20
2022-12-06T16:12:09.137Z,2.77
2022-12-06T16:14:35.799Z,2.83
2022-12-06T16:17:02.429Z,3.80
2022-12-06T16:19:48.998Z,3.57
2022-12-06T16:22:15.676Z,4.17
2022-12-06T16:24:42.292Z,4.03
2022-12-06T16:27:08.885Z,4.23
2022-12-06T16:29:35.557Z,4.27
2022-12-06T16:32:02.283Z,4.57
2022-12-06T16:34:29.658Z,3.50
2022-12-06T16:37:06.420Z,3.93
2022-12-06T16:39:34.607Z,4.27
2022-12-06T16:42:03.365Z,4.70
2022-12-06T16:44:30.079Z,5.13
2022-12-06T16:46:57.275Z,4.50
2022-12-06T16:52:14.004Z,4.93
2022-12-06T16:54:43.684Z,3.80
2022-12-06T16:57:14.256Z,3.37
2022-12-06T16:59:42.247Z,4.97
2022-12-06T17:02:30.670Z,5.67
2022-12-06T17:05:06.263Z,10.00
2022-12-06T17:07:34.559Z,5.93
2022-12-06T17:10:01.379Z,5.20
2022-12-06T17:12:28.526Z,3.60
2022-12-06T17:14:55.117Z,4.57
2022-12-06T17:17:22.621Z,12.57
2022-12-06T17:19:49.817Z,13.33
2022-12-06T17:22:16.728Z,9.53
2022-12-06T17:24:43.700Z,16.23
2022-12-06T17:27:10.650Z,6.53
2022-12-06T17:29:37.356Z,4.47
2022-12-06T17:32:04.219Z,5.07
2022-12-06T17:34:31.326Z,4.53
2022-12-06T17:36:59.010Z,4.40
2022-12-06T17:39:26.034Z,3.70
2022-12-06T17:42:11.295Z,4.87
2022-12-06T17:44:39.736Z,4.83
2022-12-06T17:47:06.805Z,6.20
2022-12-06T17:49:35.881Z,5.33
2022-12-06T17:52:02.607Z,5.23
2022-12-06T17:54:29.486Z,4.70
2022-12-06T17:56:56.256Z,4.80
2022-12-06T17:59:26.099Z,5.37
2022-12-06T18:04:41.385Z,7.30
2022-12-06T18:07:08.111Z,5.33
2022-12-06T18:09:34.684Z,5.10
2022-12-06T18:12:03.087Z,5.77
2022-12-06T18:14:29.742Z,5.23
2022-12-06T18:16:56.394Z,4.93
2022-12-06T18:19:23.468Z,4.97
2022-12-06T18:21:52.164Z,4.70
2022-12-06T18:24:23.183Z,6.17
2022-12-06T18:26:51.909Z,5.60
2022-12-06T18:29:22.622Z,5.87
2022-12-06T18:31:50.335Z,5.63
2022-12-06T18:34:17.661Z,5.07
2022-12-06T18:36:44.436Z,5.07
2022-12-06T18:39:16.708Z,5.40
2022-12-06T18:41:44.598Z,5.20
2022-12-06T18:44:12.441Z,4.70
2022-12-06T18:46:42.234Z,4.67
2022-12-06T18:49:13.213Z,6.57
2022-12-06T18:51:39.985Z,6.00
2022-12-06T18:54:08.055Z,4.83
2022-12-06T18:56:35.476Z,5.23
2022-12-06T18:59:07.128Z,6.73
2022-12-06T19:01:36.234Z,5.10
2022-12-06T19:04:04.986Z,5.73
2022-12-06T19:06:34.134Z,7.63
2022-12-06T19:09:04.458Z,6.40
2022-12-06T19:11:31.400Z,6.10
2022-12-06T19:14:00.010Z,5.23
2022-12-06T19:16:42.496Z,5.57
2022-12-06T19:19:21.603Z,5.67
2022-12-06T19:21:49.709Z,4.93
2022-12-06T19:24:20.139Z,9.97
2022-12-06T19:26:48.641Z,7.80
2022-12-06T19:29:16.450Z,7.80
2022-12-06T19:31:43.644Z,5.90
2022-12-06T19:34:17.372Z,8.70
2022-12-06T19:36:44.809Z,7.17
2022-12-06T19:39:13.941Z,6.90
2022-12-06T19:42:00.414Z,6.93
2022-12-06T19:44:27.701Z,6.40
2022-12-06T19:46:54.525Z,6.93
2022-12-06T19:49:23.156Z,5.43
2022-12-06T19:51:50.576Z,5.97
2022-12-06T19:54:20.582Z,7.90
2022-12-06T19:56:49.853Z,6.27
2022-12-06T19:59:16.620Z,6.47
2022-12-06T20:01:45.723Z,5.73
2022-12-06T20:04:22.631Z,5.50
2022-12-06T20:06:50.950Z,5.20
2022-12-06T20:09:19.145Z,4.90
2022-12-06T20:12:12.897Z,4.80
2022-12-06T20:14:42.676Z,6.27
2022-12-06T20:17:15.315Z,5.83
2022-12-06T20:19:51.423Z,5.00
2022-12-06T20:22:19.792Z,4.60
2022-12-06T20:24:46.563Z,5.43
2022-12-06T20:27:13.287Z,5.90
2022-12-06T20:29:40.313Z,4.70
2022-12-06T20:32:07.127Z,6.00
2022-12-06T20:34:34.844Z,6.00
2022-12-06T20:37:03.910Z,5.87
2022-12-06T20:39:33.028Z,5.00
2022-12-06T20:41:59.760Z,5.40
2022-12-06T20:44:26.497Z,5.83
2022-12-06T20:46:54.205Z,5.87
2022-12-06T20:49:21.120Z,7.03
2022-12-06T20:51:52.558Z,6.97
2022-12-06T20:54:20.032Z,5.33
2022-12-06T20:56:47.233Z,5.67
2022-12-06T20:59:14.066Z,5.60
2022-12-06T21:01:42.038Z,5.50
2022-12-06T21:04:12.684Z,4.90
2022-12-06T21:06:39.522Z,4.40
2022-12-06T21:09:06.277Z,4.90
2022-12-06T21:11:33.071Z,5.40
2022-12-06T21:13:59.710Z,4.30
2022-12-06T21:16:29.631Z,5.50
2022-12-06T21:19:07.675Z,4.47
2022-12-06T21:21:37.191Z,5.30
2022-12-06T21:24:10.191Z,5.43
2022-12-06T21:26:37.428Z,5.93
2022-12-06T21:29:05.034Z,5.90
2022-12-06T21:31:37.049Z,5.50
2022-12-06T21:34:04.336Z,5.43
2022-12-06T21:36:30.950Z,5.40
2022-12-06T21:38:58.345Z,6.30
2022-12-06T21:41:25.857Z,5.87
2022-12-06T21:43:52.685Z,5.73
2022-12-06T21:46:22.316Z,6.00
2022-12-06T21:48:57.758Z,5.50
2022-12-06T21:51:27.507Z,6.63
2022-12-06T21:53:54.420Z,5.03
2022-12-06T21:56:26.291Z,6.20
2022-12-06T21:58:53.334Z,5.77
2022-12-06T22:01:24.083Z,5.70
2022-12-06T22:03:53.144Z,6.40
2022-12-06T22:06:20.417Z,6.33
2022-12-06T22:08:48.367Z,6.20
2022-12-06T22:11:17.683Z,6.27
2022-12-06T22:13:45.586Z,5.67
2022-12-06T22:16:13.214Z,5.73
2022-12-06T22:18:45.491Z,5.20
2022-12-06T22:21:24.616Z,5.77
2022-12-06T22:23:51.993Z,5.40
2022-12-06T22:26:22.600Z,5.03
2022-12-06T22:28:50.440Z,5.10
2022-12-06T22:31:22.269Z,5.67
2022-12-06T22:33:51.146Z,3.83
2022-12-06T22:36:19.726Z,5.23
2022-12-06T22:38:51.610Z,4.50
2022-12-06T22:41:22.213Z,4.93
2022-12-06T22:44:02.987Z,5.33
2022-12-06T22:46:30.529Z,4.67
2022-12-06T22:48:58.572Z,5.30
2022-12-06T22:51:31.023Z,5.27
2022-12-06T22:54:02.428Z,4.93
2022-12-06T22:56:29.865Z,5.03
2022-12-06T22:58:58.463Z,5.47
2022-12-06T23:01:27.629Z,5.33
2022-12-06T23:03:54.830Z,5.50
2022-12-06T23:06:24.019Z,5.87
2022-12-06T23:08:50.833Z,4.47
2022-12-06T23:11:20.594Z,5.70
2022-12-06T23:13:47.309Z,5.60
2022-12-06T23:16:18.396Z,4.40
2022-12-06T23:18:48.279Z,5.27
2022-12-06T23:21:24.732Z,5.70
2022-12-06T23:23:57.604Z,5.57
2022-12-06T23:26:30.911Z,5.10
2022-12-06T23:28:57.565Z,5.43
2022-12-06T23:31:26.582Z,5.63
2022-12-06T23:33:56.473Z,4.77
2022-12-06T23:36:25.742Z,5.30
2022-12-06T23:38:52.714Z,5.37
2022-12-06T23:41:22.408Z,6.30
2022-12-06T23:43:49.479Z,5.27
2022-12-06T23:46:22.387Z,5.43
2022-12-06T23:48:50.464Z,5.33
2022-12-06T23:51:20.428Z,4.97
2022-12-06T23:53:52.226Z,3.90
2022-12-06T23:56:21.374Z,4.77
2022-12-06T23:58:50.474Z,5.80
